Time;durP1;ratioP1;P1;durP2;ratioP2;P2;SDS_P1;SDS_P2;PMS_P1;PMS_P2;Temp;Humidity;BMP_temperature;BMP_pressure;BME280_temperature;BME280_humidity;BME280_pressure;Samples;Min_cycle;Max_cycle;Signal;HPM_P1;HPM_P2
2023/12/31 00:02:01;;;;;;;6.07;3.70;;;17.60;65.20;;;;;;5002286;28;20469;-78
2023/12/31 00:04:29;;;;;;;6.83;3.80;;;17.50;65.70;;;;;;4998963;28;20493;-78
2023/12/31 00:06:58;;;;;;;4.30;3.30;;;17.60;65.00;;;;;;5001629;28;20475;-78
2023/12/31 00:09:26;;;;;;;4.90;3.17;;;17.50;65.00;;;;;;4996752;28;20441;-78
2023/12/31 00:11:54;;;;;;;5.80;3.27;;;17.50;64.90;;;;;;4998913;28;20475;-78
2023/12/31 00:14:22;;;;;;;6.20;3.33;;;17.50;64.90;;;;;;4997424;28;20506;-78
2023/12/31 00:16:50;;;;;;;4.10;3.27;;;17.50;65.00;;;;;;4995508;28;20433;-79
2023/12/31 00:19:18;;;;;;;9.33;3.50;;;17.50;64.50;;;;;;4993438;28;20488;-78
2023/12/31 00:21:46;;;;;;;4.77;3.43;;;17.50;64.80;;;;;;5002948;28;20476;-79
2023/12/31 00:24:15;;;;;;;4.30;2.97;;;17.50;64.40;;;;;;5001994;28;20468;-78
2023/12/31 00:26:43;;;;;;;4.83;3.30;;;17.50;64.70;;;;;;4997723;28;20508;-78
2023/12/31 00:29:10;;;;;;;4.43;3.40;;;17.50;64.30;;;;;;4995555;28;20880;-78
2023/12/31 00:31:38;;;;;;;4.30;3.40;;;17.50;64.50;;;;;;5004737;28;20990;-78
2023/12/31 00:34:08;;;;;;;4.87;3.37;;;17.50;64.20;;;;;;5001757;28;20452;-79
2023/12/31 00:36:36;;;;;;;4.30;3.00;;;17.40;64.10;;;;;;4999223;28;21048;-78
2023/12/31 00:39:04;;;;;;;4.77;3.17;;;17.40;64.40;;;;;;5007067;28;20444;-78
2023/12/31 00:41:33;;;;;;;5.40;3.20;;;17.40;64.40;;;;;;4995263;28;20496;-78
2023/12/31 00:44:01;;;;;;;7.10;3.13;;;17.40;64.40;;;;;;4999016;28;20481;-79
2023/12/31 00:46:29;;;;;;;4.77;3.30;;;17.40;64.30;;;;;;4994239;28;20441;-78
2023/12/31 00:48:57;;;;;;;3.60;3.30;;;17.40;64.40;;;;;;4989359;28;20496;-79
2023/12/31 00:51:25;;;;;;;4.83;3.40;;;17.40;64.40;;;;;;4997211;28;20469;-79
2023/12/31 00:53:53;;;;;;;4.80;2.90;;;17.40;64.40;;;;;;4989696;28;20445;-78
2023/12/31 00:56:21;;;;;;;5.27;3.00;;;17.40;64.30;;;;;;4995570;28;20515;-79
2023/12/31 00:58:50;;;;;;;5.57;2.97;;;17.40;64.30;;;;;;4999301;28;20529;-78
2023/12/31 01:01:18;;;;;;;5.37;3.10;;;17.40;65.00;;;;;;4998571;28;20484;-78
2023/12/31 01:03:46;;;;;;;5.23;3.10;;;17.40;64.50;;;;;;4998074;28;20504;-78
2023/12/31 01:06:14;;;;;;;3.87;2.77;;;17.40;64.30;;;;;;4999368;28;20991;-78
2023/12/31 01:08:42;;;;;;;2.97;2.77;;;17.40;64.50;;;;;;4994455;28;20991;-78
2023/12/31 01:11:10;;;;;;;3.53;2.60;;;17.40;64.40;;;;;;5002863;28;20469;-77
2023/12/31 01:13:38;;;;;;;4.40;2.97;;;17.40;64.20;;;;;;5000095;28;20546;-78
2023/12/31 01:16:08;;;;;;;2.60;2.40;;;17.40;64.30;;;;;;4991065;28;20950;-78
2023/12/31 01:18:36;;;;;;;2.90;2.50;;;17.40;64.10;;;;;;4998384;28;20477;-78
2023/12/31 01:21:04;;;;;;;3.87;2.47;;;17.40;64.40;;;;;;4993607;28;20468;-79
2023/12/31 01:23:32;;;;;;;4.70;3.00;;;17.40;64.30;;;;;;5005832;28;20540;-79
2023/12/31 01:26:00;;;;;;;4.60;2.67;;;17.40;64.00;;;;;;5002475;28;20505;-79
2023/12/31 01:28:27;;;;;;;5.37;2.97;;;17.40;64.10;;;;;;4996553;28;20520;-79
2023/12/31 01:30:55;;;;;;;2.60;2.43;;;17.40;63.90;;;;;;5002815;28;20453;-79
2023/12/31 01:33:24;;;;;;;4.30;2.63;;;17.40;64.10;;;;;;4994066;28;20433;-79
2023/12/31 01:35:52;;;;;;;4.57;2.87;;;17.40;64.10;;;;;;5010986;28;20440;-79
2023/12/31 01:38:20;;;;;;;2.60;2.40;;;17.40;63.90;;;;;;5010986;28;20422;-79
2023/12/31 01:40:53;;;;;;;4.67;2.60;;;17.40;63.80;;;;;;5009106;28;20473;-76
2023/12/31 01:43:21;;;;;;;5.30;2.90;;;17.40;64.30;;;;;;5001742;28;20470;-76
2023/12/31 01:45:50;;;;;;;3.20;2.37;;;17.40;64.10;;;;;;5003186;28;20473;-76
2023/12/31 01:48:17;;;;;;;2.90;2.70;;;17.40;64.20;;;;;;4997036;28;21018;-77
2023/12/31 01:50:46;;;;;;;4.53;2.60;;;17.40;64.10;;;;;;4993177;28;20475;-76
2023/12/31 01:53:15;;;;;;;4.77;2.80;;;17.40;64.00;;;;;;4990200;28;20517;-78
2023/12/31 01:55:42;;;;;;;3.40;2.27;;;17.40;64.20;;;;;;4990433;28;20441;-77
2023/12/31 01:58:10;;;;;;;2.40;2.23;;;17.40;64.60;;;;;;4994776;28;20488;-78
2023/12/31 02:00:38;;;;;;;3.20;2.70;;;17.40;64.00;;;;;;4995687;28;20506;-79
2023/12/31 02:03:06;;;;;;;3.90;2.63;;;17.40;64.00;;;;;;4989059;28;20485;-78
2023/12/31 02:05:34;;;;;;;3.23;2.90;;;17.40;63.80;;;;;;4983297;28;20446;-79
2023/12/31 02:08:05;;;;;;;4.90;2.90;;;17.40;64.10;;;;;;4981815;28;20465;-78
2023/12/31 02:10:33;;;;;;;4.33;2.47;;;17.40;64.00;;;;;;4996556;28;20489;-79
2023/12/31 02:13:01;;;;;;;4.60;2.63;;;17.40;63.90;;;;;;4987671;28;20437;-79
2023/12/31 02:15:30;;;;;;;3.23;2.40;;;17.40;64.10;;;;;;4987088;28;20425;-80
2023/12/31 02:17:59;;;;;;;2.70;2.50;;;17.40;63.90;;;;;;4980835;28;20561;-80
2023/12/31 02:20:27;;;;;;;2.70;2.20;;;17.40;64.00;;;;;;4985938;28;20465;-81
2023/12/31 02:22:55;;;;;;;2.90;2.23;;;17.40;64.20;;;;;;4988989;28;20480;-81
2023/12/31 02:25:25;;;;;;;2.40;2.30;;;17.40;64.00;;;;;;4999905;28;20448;-80
2023/12/31 02:27:54;;;;;;;4.63;2.40;;;17.40;63.90;;;;;;5002605;28;20459;-80
2023/12/31 02:30:22;;;;;;;5.47;2.50;;;17.40;64.30;;;;;;4992803;28;20449;-80
2023/12/31 02:32:50;;;;;;;3.10;2.70;;;17.40;64.30;;;;;;4989364;28;20437;-80
2023/12/31 02:35:18;;;;;;;2.40;2.20;;;17.40;64.00;;;;;;4988044;28;20448;-80
2023/12/31 02:37:46;;;;;;;6.73;3.43;;;17.40;64.10;;;;;;4987534;28;20454;-80
2023/12/31 02:40:18;;;;;;;3.13;2.83;;;17.40;63.90;;;;;;4964245;28;20477;-80
2023/12/31 02:42:46;;;;;;;6.83;4.17;;;17.40;64.20;;;;;;4991965;28;20824;-79
2023/12/31 02:45:15;;;;;;;4.60;3.40;;;17.50;63.80;;;;;;4993420;28;20528;-79
2023/12/31 02:47:43;;;;;;;4.27;3.67;;;17.40;64.00;;;;;;4982860;28;20546;-79
2023/12/31 02:50:11;;;;;;;4.93;4.23;;;17.40;64.00;;;;;;4978888;28;20508;-78
2023/12/31 02:52:39;;;;;;;5.50;4.20;;;17.40;63.80;;;;;;4988127;28;20469;-80
2023/12/31 02:55:07;;;;;;;7.73;4.70;;;17.40;63.60;;;;;;4983255;28;20449;-81
2023/12/31 02:57:35;;;;;;;9.00;5.17;;;17.40;64.00;;;;;;4989223;28;20442;-80
2023/12/31 03:00:04;;;;;;;7.27;4.93;;;17.40;64.10;;;;;;4991097;28;20580;-79
2023/12/31 03:02:33;;;;;;;9.30;5.50;;;17.40;63.70;;;;;;4977905;28;20446;-81
2023/12/31 03:05:01;;;;;;;8.63;6.20;;;17.40;63.70;;;;;;4991415;28;20473;-80
2023/12/31 03:07:29;;;;;;;10.27;5.53;;;17.40;64.20;;;;;;4988858;28;20455;-81
2023/12/31 03:09:57;;;;;;;7.97;5.63;;;17.40;63.90;;;;;;4996752;28;20469;-81
2023/12/31 03:12:25;;;;;;;9.50;5.37;;;17.40;63.70;;;;;;4988265;28;20483;-81
2023/12/31 03:14:53;;;;;;;11.33;6.27;;;17.40;64.00;;;;;;4982584;28;20430;-80
2023/12/31 03:17:21;;;;;;;8.30;5.90;;;17.40;64.00;;;;;;4987324;28;20521;-82
2023/12/31 03:19:50;;;;;;;8.97;5.50;;;17.40;63.90;;;;;;4984900;28;20536;-80
2023/12/31 03:22:21;;;;;;;10.37;5.83;;;17.40;64.00;;;;;;4995865;28;20453;-81
2023/12/31 03:25:05;;;;;;;9.90;5.80;;;17.40;64.00;;;;;;4986705;28;20476;-81
2023/12/31 03:27:34;;;;;;;11.27;6.00;;;17.40;63.90;;;;;;4985924;28;20461;-81
2023/12/31 03:30:02;;;;;;;7.70;4.90;;;17.40;63.90;;;;;;4980643;28;20489;-81
2023/12/31 03:32:29;;;;;;;11.00;5.37;;;17.40;63.90;;;;;;4985191;28;20437;-81
2023/12/31 03:34:59;;;;;;;10.50;5.90;;;17.40;63.90;;;;;;4991554;28;20477;-80
2023/12/31 03:37:27;;;;;;;8.03;5.83;;;17.40;64.00;;;;;;4987984;28;20488;-80
2023/12/31 03:39:55;;;;;;;10.80;6.07;;;17.40;63.90;;;;;;4990734;28;20512;-80
2023/12/31 03:42:24;;;;;;;7.60;5.40;;;17.40;63.80;;;;;;4989824;28;20466;-81
2023/12/31 03:44:52;;;;;;;7.60;5.70;;;17.40;63.80;;;;;;4977397;28;20561;-82
2023/12/31 03:47:20;;;;;;;8.30;5.30;;;17.40;63.90;;;;;;4984804;28;20488;-81
2023/12/31 03:49:48;;;;;;;8.60;5.70;;;17.40;63.80;;;;;;4992428;28;20502;-80
2023/12/31 03:52:18;;;;;;;8.37;5.63;;;17.40;63.70;;;;;;4992951;28;20511;-81
2023/12/31 03:54:47;;;;;;;7.00;4.97;;;17.40;63.60;;;;;;4986385;28;20448;-80
2023/12/31 03:57:15;;;;;;;6.70;5.10;;;17.40;63.50;;;;;;4988978;28;20481;-81
2023/12/31 03:59:43;;;;;;;8.27;5.40;;;17.40;63.90;;;;;;4980510;28;20485;-82
2023/12/31 04:02:11;;;;;;;6.53;4.73;;;17.40;63.90;;;;;;4982506;28;20488;-81
2023/12/31 04:04:40;;;;;;;6.50;4.83;;;17.40;64.00;;;;;;4980262;28;20505;-80
2023/12/31 04:07:09;;;;;;;6.30;4.60;;;17.40;63.80;;;;;;4984981;28;20453;-79
2023/12/31 04:09:39;;;;;;;6.10;4.70;;;17.40;63.60;;;;;;4974243;28;20472;-80
2023/12/31 04:12:08;;;;;;;5.13;4.63;;;17.40;63.70;;;;;;4991634;28;20450;-79
2023/12/31 04:14:36;;;;;;;6.30;4.60;;;17.40;63.90;;;;;;4987406;28;20472;-79
2023/12/31 04:17:04;;;;;;;5.63;4.50;;;17.40;63.60;;;;;;4980596;28;20568;-79
2023/12/31 04:19:32;;;;;;;7.23;4.47;;;17.40;64.20;;;;;;4974317;28;20450;-80
2023/12/31 04:22:01;;;;;;;5.40;4.50;;;17.40;64.00;;;;;;4981641;28;20453;-80
2023/12/31 04:24:29;;;;;;;5.30;4.33;;;17.40;63.90;;;;;;4990213;28;20521;-80
2023/12/31 04:26:59;;;;;;;8.80;4.23;;;17.40;64.00;;;;;;4997194;28;20516;-78
2023/12/31 04:29:27;;;;;;;9.73;4.80;;;17.40;63.80;;;;;;4995852;28;20936;-79
2023/12/31 04:31:56;;;;;;;5.03;4.40;;;17.30;64.30;;;;;;4996241;28;20496;-80
2023/12/31 04:34:24;;;;;;;6.50;3.97;;;17.30;64.00;;;;;;4995894;28;20445;-80
2023/12/31 04:36:52;;;;;;;5.17;4.33;;;17.40;64.30;;;;;;4992594;28;20477;-80
2023/12/31 04:39:21;;;;;;;5.17;4.67;;;17.30;64.10;;;;;;4995521;28;20893;-79
2023/12/31 04:41:49;;;;;;;6.83;4.80;;;17.30;64.00;;;;;;4996498;28;20449;-79
2023/12/31 04:44:18;;;;;;;5.63;4.13;;;17.30;64.10;;;;;;4996771;28;20472;-79
2023/12/31 04:46:46;;;;;;;4.40;3.83;;;17.30;64.00;;;;;;4997661;28;20476;-79
2023/12/31 04:49:15;;;;;;;5.10;3.70;;;17.30;64.10;;;;;;4996443;28;20991;-79
2023/12/31 04:51:43;;;;;;;6.37;4.27;;;17.30;64.40;;;;;;4997446;28;20456;-80
2023/12/31 04:54:11;;;;;;;7.10;4.00;;;17.30;64.20;;;;;;4997252;28;20440;-78
2023/12/31 04:56:39;;;;;;;4.37;3.73;;;17.30;64.10;;;;;;4997768;28;20476;-80
2023/12/31 04:59:07;;;;;;;4.13;3.67;;;17.20;64.30;;;;;;4996862;28;20492;-80
2023/12/31 05:01:37;;;;;;;4.70;3.67;;;17.20;64.40;;;;;;4997198;28;20453;-80
2023/12/31 05:04:05;;;;;;;5.53;3.60;;;17.20;64.30;;;;;;5014741;28;20444;-80
2023/12/31 05:06:33;;;;;;;5.47;4.17;;;17.20;64.30;;;;;;5016980;28;20444;-80
2023/12/31 05:09:03;;;;;;;3.90;3.60;;;17.20;64.10;;;;;;5015819;28;20440;-79
2023/12/31 05:11:31;;;;;;;4.40;3.97;;;17.20;64.30;;;;;;5016852;28;20456;-80
2023/12/31 05:13:59;;;;;;;4.40;3.77;;;17.20;64.50;;;;;;5016228;28;20440;-80
2023/12/31 05:16:31;;;;;;;7.30;3.70;;;17.20;64.60;;;;;;4995757;28;20464;-80
2023/12/31 05:19:01;;;;;;;4.20;3.80;;;17.20;64.50;;;;;;4994807;28;20480;-80
2023/12/31 05:21:29;;;;;;;6.53;3.57;;;17.20;64.80;;;;;;4996540;28;20469;-80
2023/12/31 05:23:57;;;;;;;4.33;3.43;;;17.20;64.30;;;;;;4996500;28;20495;-80
2023/12/31 05:26:25;;;;;;;5.10;3.47;;;17.10;64.50;;;;;;4996012;28;20500;-80
2023/12/31 05:28:53;;;;;;;3.37;3.07;;;17.10;64.60;;;;;;4996424;28;20449;-79
2023/12/31 05:31:21;;;;;;;5.13;3.70;;;17.10;64.50;;;;;;4996666;28;20481;-80
2023/12/31 05:33:49;;;;;;;3.90;3.50;;;17.20;64.30;;;;;;4997030;28;20445;-80
2023/12/31 05:36:19;;;;;;;4.40;3.27;;;17.10;64.60;;;;;;5004188;28;20441;-80
2023/12/31 05:38:47;;;;;;;4.00;3.03;;;17.10;64.40;;;;;;5000620;28;20476;-79
2023/12/31 05:41:15;;;;;;;4.00;3.60;;;17.10;64.30;;;;;;4999153;28;20476;-79
2023/12/31 05:43:43;;;;;;;3.10;2.80;;;17.10;64.10;;;;;;4996844;28;20438;-80
2023/12/31 05:46:11;;;;;;;5.93;3.30;;;17.00;64.20;;;;;;4995876;28;20979;-80
2023/12/31 05:48:39;;;;;;;4.70;3.10;;;17.00;64.30;;;;;;4994195;28;20849;-80
2023/12/31 05:51:08;;;;;;;3.23;2.93;;;17.10;64.50;;;;;;4995984;28;20488;-79
2023/12/31 05:53:37;;;;;;;3.10;2.90;;;17.10;63.90;;;;;;4995981;28;20491;-79
2023/12/31 05:56:05;;;;;;;7.37;3.67;;;17.00;64.40;;;;;;4995587;28;20452;-77
2023/12/31 05:58:33;;;;;;;3.30;3.00;;;17.00;64.10;;;;;;4995205;28;20469;-79
2023/12/31 06:01:02;;;;;;;3.23;3.03;;;17.00;64.00;;;;;;4993873;28;20524;-79
2023/12/31 06:03:30;;;;;;;3.23;2.80;;;17.00;64.30;;;;;;4986180;28;20476;-79
2023/12/31 06:05:58;;;;;;;2.80;2.60;;;17.00;64.20;;;;;;4994774;28;20474;-79
2023/12/31 06:08:26;;;;;;;3.87;2.70;;;17.00;64.20;;;;;;4979355;28;20445;-79
2023/12/31 06:10:56;;;;;;;4.37;3.00;;;17.00;64.10;;;;;;4990046;28;20839;-78
2023/12/31 06:13:24;;;;;;;2.93;2.73;;;17.00;63.50;;;;;;4991201;28;20465;-79
2023/12/31 06:15:52;;;;;;;4.37;3.07;;;17.00;64.10;;;;;;4988049;28;20441;-80
2023/12/31 06:18:20;;;;;;;3.27;2.87;;;17.00;63.80;;;;;;4996934;28;20457;-80
2023/12/31 06:20:48;;;;;;;2.90;2.40;;;17.00;63.90;;;;;;4996663;28;20465;-81
2023/12/31 06:23:17;;;;;;;3.37;3.07;;;16.90;63.90;;;;;;4996573;28;20450;-81
2023/12/31 06:25:46;;;;;;;2.23;2.03;;;17.00;63.70;;;;;;4995121;28;20465;-79
2023/12/31 06:28:16;;;;;;;2.70;2.50;;;17.00;64.00;;;;;;4993144;28;20450;-81
2023/12/31 06:30:44;;;;;;;3.70;2.83;;;17.00;63.70;;;;;;4989815;28;20473;-81
2023/12/31 06:33:12;;;;;;;3.00;2.43;;;17.00;63.90;;;;;;4994761;28;20475;-79
2023/12/31 06:35:40;;;;;;;2.70;2.50;;;17.00;63.70;;;;;;4995284;28;20433;-80
2023/12/31 06:38:08;;;;;;;2.83;2.63;;;17.00;63.70;;;;;;4996022;28;20445;-80
2023/12/31 06:40:36;;;;;;;6.33;2.90;;;17.00;63.60;;;;;;4983278;28;20454;-81
2023/12/31 06:43:04;;;;;;;2.53;2.43;;;17.00;63.60;;;;;;4989449;28;20444;-81
2023/12/31 06:45:34;;;;;;;2.50;2.30;;;16.90;63.40;;;;;;4988822;28;20816;-81
2023/12/31 06:48:06;;;;;;;3.13;2.47;;;16.90;63.70;;;;;;4985721;28;20438;-81
2023/12/31 06:50:35;;;;;;;3.00;2.50;;;16.90;63.60;;;;;;4995365;28;20466;-81
2023/12/31 06:53:06;;;;;;;2.33;2.10;;;16.90;63.20;;;;;;4999113;23;20501;-81
2023/12/31 06:55:58;;;;;;;3.27;2.53;;;17.00;63.60;;;;;;4970957;28;20435;-78
2023/12/31 06:58:33;;;;;;;2.80;2.23;;;16.90;63.40;;;;;;4964735;28;20436;-79
2023/12/31 07:01:24;;;;;;;2.93;2.20;;;16.90;63.30;;;;;;4974648;28;20965;-78
2023/12/31 07:04:03;;;;;;;2.93;2.60;;;17.00;63.40;;;;;;4953649;28;20459;-78
2023/12/31 07:06:39;;;;;;;2.60;2.40;;;16.90;63.30;;;;;;4949832;29;20486;-81
2023/12/31 07:09:20;;;;;;;2.47;2.30;;;17.00;63.40;;;;;;4952429;28;20451;-78
2023/12/31 07:11:55;;;;;;;2.27;2.17;;;17.00;63.30;;;;;;4951460;28;20485;-79
2023/12/31 07:14:32;;;;;;;4.70;2.17;;;17.00;63.10;;;;;;4940933;28;20513;-78
2023/12/31 07:17:06;;;;;;;2.27;2.10;;;16.90;63.10;;;;;;4952732;29;20450;-78
2023/12/31 07:19:35;;;;;;;2.73;2.53;;;17.00;63.10;;;;;;4946877;28;20455;-78
2023/12/31 07:22:03;;;;;;;2.73;2.53;;;17.00;63.20;;;;;;4952578;28;20479;-78
2023/12/31 07:24:32;;;;;;;2.10;2.00;;;17.00;63.20;;;;;;4956896;28;20514;-78
2023/12/31 07:27:00;;;;;;;2.33;2.13;;;17.00;63.00;;;;;;4959191;28;20494;-78
2023/12/31 07:29:29;;;;;;;2.40;2.10;;;17.00;62.90;;;;;;4949737;28;20487;-79
2023/12/31 07:31:58;;;;;;;2.30;2.10;;;17.00;63.10;;;;;;4938565;29;20474;-80
2023/12/31 07:34:28;;;;;;;2.00;1.90;;;17.00;62.80;;;;;;4942669;29;20503;-79
2023/12/31 07:36:56;;;;;;;2.20;2.00;;;17.00;62.70;;;;;;4947234;28;20438;-79
2023/12/31 07:39:26;;;;;;;2.80;2.10;;;17.00;62.80;;;;;;4952386;28;20471;-81
2023/12/31 07:41:53;;;;;;;2.23;2.13;;;17.00;62.80;;;;;;4957470;28;20467;-78
2023/12/31 07:44:22;;;;;;;2.10;1.73;;;17.00;62.70;;;;;;4952228;28;20474;-79
2023/12/31 07:46:49;;;;;;;3.17;2.07;;;17.10;62.80;;;;;;4950955;29;20501;-80
2023/12/31 07:49:17;;;;;;;2.63;2.10;;;17.10;62.80;;;;;;4943229;29;20455;-80
2023/12/31 07:51:48;;;;;;;2.23;2.10;;;17.10;62.90;;;;;;4951606;28;20490;-81
2023/12/31 07:54:18;;;;;;;2.07;1.87;;;17.10;62.80;;;;;;4951834;29;20462;-80
2023/12/31 07:56:46;;;;;;;2.20;2.10;;;17.10;62.50;;;;;;4956747;28;20478;-79
2023/12/31 07:59:15;;;;;;;1.80;1.70;;;17.10;63.00;;;;;;4955303;29;20465;-79
2023/12/31 08:01:45;;;;;;;2.40;2.10;;;17.10;62.80;;;;;;4956124;29;20553;-78
2023/12/31 08:04:14;;;;;;;2.53;2.33;;;17.10;62.80;;;;;;4954497;28;20526;-78
2023/12/31 08:06:42;;;;;;;2.33;2.13;;;17.10;62.80;;;;;;4943981;28;20503;-78
2023/12/31 08:09:15;;;;;;;2.10;2.00;;;17.10;62.60;;;;;;4954700;29;20554;-81
2023/12/31 08:11:43;;;;;;;2.60;2.40;;;17.10;62.60;;;;;;4948640;28;20537;-80
2023/12/31 08:14:12;;;;;;;2.17;1.93;;;17.10;62.60;;;;;;4946624;28;20963;-78
2023/12/31 08:16:41;;;;;;;2.17;2.07;;;17.10;62.40;;;;;;4936849;29;20422;-79
2023/12/31 08:19:11;;;;;;;2.00;1.90;;;17.10;62.40;;;;;;4937610;28;20452;-79
2023/12/31 08:21:40;;;;;;;3.97;2.40;;;17.20;63.20;;;;;;4953147;29;20463;-80
2023/12/31 08:24:09;;;;;;;2.60;2.40;;;17.20;62.40;;;;;;4937495;29;20452;-81
2023/12/31 08:26:39;;;;;;;2.23;2.00;;;17.20;62.40;;;;;;4949509;28;20463;-79
2023/12/31 08:29:06;;;;;;;2.07;1.97;;;17.20;62.60;;;;;;4955373;28;20534;-80
2023/12/31 08:31:34;;;;;;;2.03;1.93;;;17.20;62.50;;;;;;4954428;28;20458;-79
2023/12/31 08:34:06;;;;;;;2.10;2.00;;;17.20;62.20;;;;;;4955495;28;20439;-80
2023/12/31 08:36:34;;;;;;;2.20;2.00;;;17.20;62.40;;;;;;4954345;28;20935;-81
2023/12/31 08:39:02;;;;;;;4.03;2.10;;;17.20;62.40;;;;;;4955667;29;20489;-79
2023/12/31 08:41:31;;;;;;;1.97;1.87;;;17.20;62.30;;;;;;4957051;28;20514;-79
2023/12/31 08:44:00;;;;;;;2.33;2.13;;;17.20;62.20;;;;;;4962051;28;20497;-80
2023/12/31 08:46:28;;;;;;;1.93;1.80;;;17.20;62.30;;;;;;4955953;28;20479;-79
2023/12/31 08:48:56;;;;;;;2.67;2.13;;;17.20;62.20;;;;;;4956292;29;20443;-79
2023/12/31 08:51:24;;;;;;;1.90;1.63;;;17.20;62.10;;;;;;4955418;28;20443;-78
2023/12/31 08:53:52;;;;;;;1.80;1.70;;;17.30;62.20;;;;;;4955197;29;20534;-79
2023/12/31 08:56:20;;;;;;;2.00;1.90;;;17.20;62.00;;;;;;4955058;28;20486;-80
2023/12/31 08:58:48;;;;;;;2.20;2.00;;;17.30;62.10;;;;;;4955109;29;20526;-78
2023/12/31 09:01:19;;;;;;;1.80;1.70;;;17.30;62.00;;;;;;4955720;28;20455;-81
2023/12/31 09:03:49;;;;;;;1.93;1.83;;;17.30;61.90;;;;;;4954374;28;20452;-79
2023/12/31 09:06:18;;;;;;;3.00;2.13;;;17.30;62.10;;;;;;4950746;29;20487;-79
2023/12/31 09:08:47;;;;;;;2.27;2.07;;;17.30;62.10;;;;;;4949102;28;20509;-78
2023/12/31 09:11:16;;;;;;;2.13;2.03;;;17.30;62.00;;;;;;4963148;28;20451;-78
2023/12/31 09:13:44;;;;;;;2.13;2.03;;;17.30;62.00;;;;;;4946184;29;20539;-78
2023/12/31 09:16:13;;;;;;;1.97;1.77;;;17.30;61.80;;;;;;4939217;28;20452;-83
2023/12/31 09:18:42;;;;;;;3.67;2.40;;;17.30;61.80;;;;;;4954671;29;20506;-78
2023/12/31 09:21:10;;;;;;;1.70;1.60;;;17.40;61.70;;;;;;4949706;28;20462;-81
2023/12/31 09:23:41;;;;;;;1.90;1.80;;;17.40;61.70;;;;;;4954120;28;20484;-78
2023/12/31 09:26:10;;;;;;;1.77;1.67;;;17.40;61.40;;;;;;4954577;28;20961;-78
2023/12/31 09:28:42;;;;;;;6.50;2.43;;;17.40;61.70;;;;;;4954000;29;20529;-81
2023/12/31 09:31:11;;;;;;;2.07;1.97;;;17.40;61.60;;;;;;4937351;28;20454;-79
2023/12/31 09:33:39;;;;;;;2.60;2.40;;;17.40;61.70;;;;;;4954624;28;20511;-79
2023/12/31 09:36:11;;;;;;;2.47;1.90;;;17.40;61.70;;;;;;4959011;28;20455;-79
2023/12/31 09:38:43;;;;;;;1.87;1.70;;;17.40;61.60;;;;;;4954213;28;20457;-78
2023/12/31 09:41:14;;;;;;;2.20;1.90;;;17.40;61.50;;;;;;4954423;28;20447;-79
2023/12/31 09:43:42;;;;;;;1.83;1.73;;;17.50;61.60;;;;;;4950837;28;20504;-83
2023/12/31 09:46:10;;;;;;;1.63;1.53;;;17.50;61.70;;;;;;4954086;29;20522;-79
2023/12/31 09:48:39;;;;;;;2.00;1.90;;;17.50;61.60;;;;;;4946120;29;20502;-80
2023/12/31 09:51:08;;;;;;;1.90;1.80;;;17.50;61.40;;;;;;4960525;28;20501;-79
2023/12/31 09:53:36;;;;;;;1.60;1.50;;;17.50;61.30;;;;;;4949506;28;20506;-78
2023/12/31 09:56:05;;;;;;;1.87;1.77;;;17.60;61.70;;;;;;4949239;28;20530;-78
2023/12/31 09:58:34;;;;;;;2.20;2.10;;;17.60;61.30;;;;;;4953064;29;20946;-79
2023/12/31 10:01:01;;;;;;;1.97;1.87;;;17.60;61.40;;;;;;4953924;29;20546;-78
2023/12/31 10:03:32;;;;;;;3.07;1.70;;;17.60;61.10;;;;;;4954394;29;20463;-79
2023/12/31 10:06:03;;;;;;;2.10;2.00;;;17.60;61.10;;;;;;4951204;28;20451;-77
2023/12/31 10:08:33;;;;;;;1.93;1.83;;;17.70;61.20;;;;;;4953892;28;20478;-79
2023/12/31 10:11:03;;;;;;;1.97;1.87;;;17.70;61.00;;;;;;4951913;29;20457;-80
2023/12/31 10:13:31;;;;;;;1.97;1.87;;;17.80;60.90;;;;;;4953752;28;20561;-78
2023/12/31 10:16:00;;;;;;;2.10;2.00;;;17.80;60.80;;;;;;4949933;29;20455;-80
2023/12/31 10:18:28;;;;;;;1.67;1.57;;;17.80;60.60;;;;;;4956641;28;20479;-78
2023/12/31 10:20:56;;;;;;;2.60;1.80;;;17.90;60.70;;;;;;4955069;28;20447;-78
2023/12/31 10:23:25;;;;;;;1.73;1.63;;;17.90;60.50;;;;;;4951122;29;20506;-81
2023/12/31 10:25:56;;;;;;;2.33;1.23;;;18.00;60.40;;;;;;4942008;29;20784;-77
2023/12/31 10:28:24;;;;;;;2.10;2.00;;;18.00;60.20;;;;;;4952674;29;20479;-78
2023/12/31 10:30:52;;;;;;;2.50;1.80;;;18.00;60.20;;;;;;4953561;29;20455;-78
2023/12/31 10:33:20;;;;;;;1.73;1.63;;;18.00;60.00;;;;;;4966660;28;20494;-78
2023/12/31 10:35:51;;;;;;;1.70;1.60;;;18.10;60.00;;;;;;4961845;28;20536;-78
2023/12/31 10:38:26;;;;;;;2.87;1.97;;;18.10;59.80;;;;;;4955566;29;20441;-78
2023/12/31 10:41:05;;;;;;;2.23;2.03;;;18.10;59.50;;;;;;4956025;29;20471;-81
2023/12/31 10:43:38;;;;;;;2.10;2.00;;;18.10;59.60;;;;;;4957707;28;20471;-79
2023/12/31 10:46:10;;;;;;;1.67;1.67;;;18.10;59.50;;;;;;4953322;28;20457;-78
2023/12/31 10:48:39;;;;;;;1.93;1.83;;;18.10;59.40;;;;;;4953935;29;20505;-78
2023/12/31 10:51:07;;;;;;;1.60;1.50;;;18.10;59.30;;;;;;4954339;28;20439;-78
2023/12/31 10:53:38;;;;;;;4.63;2.10;;;18.10;59.10;;;;;;4949856;28;20487;-78
2023/12/31 10:56:07;;;;;;;2.20;2.00;;;18.10;59.00;;;;;;4954309;29;20518;-78
2023/12/31 10:58:37;;;;;;;1.77;1.67;;;18.10;59.00;;;;;;4953581;28;20444;-78
2023/12/31 11:01:06;;;;;;;2.60;1.67;;;18.10;59.00;;;;;;4955681;28;20451;-79
2023/12/31 11:03:37;;;;;;;1.90;1.80;;;18.10;58.90;;;;;;4958953;28;20534;-78
2023/12/31 11:06:05;;;;;;;2.00;1.77;;;18.10;59.00;;;;;;4953915;28;20465;-78
2023/12/31 11:08:40;;;;;;;1.63;1.53;;;18.10;58.90;;;;;;4951167;29;20471;-78
2023/12/31 11:11:26;;;;;;;2.00;1.80;;;18.20;58.90;;;;;;4960344;28;20455;-78
2023/12/31 11:14:04;;;;;;;1.87;1.80;;;18.20;58.80;;;;;;4952929;28;20477;-80
2023/12/31 11:16:44;;;;;;;2.30;2.17;;;18.10;58.60;;;;;;4959624;28;20493;-80
2023/12/31 11:19:28;;;;;;;1.87;1.77;;;18.10;58.70;;;;;;4960257;28;20493;-78
2023/12/31 11:22:10;;;;;;;1.87;1.77;;;18.20;58.80;;;;;;4936008;29;20464;-78
2023/12/31 11:24:40;;;;;;;1.80;1.70;;;18.10;58.50;;;;;;4954343;28;20447;-80
2023/12/31 11:27:16;;;;;;;1.90;1.80;;;18.20;58.60;;;;;;4955038;29;20506;-77
2023/12/31 11:29:46;;;;;;;2.00;1.90;;;18.10;58.40;;;;;;4952296;29;20463;-78
2023/12/31 11:32:16;;;;;;;1.93;1.83;;;18.10;58.40;;;;;;4953358;28;20482;-78
2023/12/31 11:34:44;;;;;;;2.03;1.93;;;18.10;58.50;;;;;;4957493;29;20872;-78
2023/12/31 11:37:11;;;;;;;2.20;2.10;;;18.10;58.50;;;;;;4957443;29;20435;-79
2023/12/31 11:39:39;;;;;;;1.70;1.60;;;18.10;58.50;;;;;;4957311;28;20475;-79
2023/12/31 11:42:10;;;;;;;1.90;1.80;;;18.10;58.40;;;;;;4957483;28;20474;-79
2023/12/31 11:44:40;;;;;;;2.20;2.03;;;18.20;58.30;;;;;;4957482;28;20427;-79
2023/12/31 11:47:14;;;;;;;1.83;1.73;;;18.20;58.20;;;;;;4957382;29;20524;-78
2023/12/31 11:49:46;;;;;;;2.37;1.70;;;18.20;58.10;;;;;;4956598;28;20511;-78
2023/12/31 11:52:14;;;;;;;2.00;1.90;;;18.20;58.00;;;;;;4957055;28;20499;-77
2023/12/31 11:54:41;;;;;;;1.80;1.70;;;18.20;58.00;;;;;;4956522;28;20438;-77
2023/12/31 11:57:10;;;;;;;2.00;1.90;;;18.20;57.80;;;;;;4957699;29;20545;-77
2023/12/31 11:59:43;;;;;;;2.17;1.97;;;18.20;58.00;;;;;;4956258;29;20494;-79
2023/12/31 12:02:11;;;;;;;2.43;2.27;;;18.10;58.00;;;;;;4960577;28;21025;-76
2023/12/31 12:04:40;;;;;;;2.80;2.10;;;18.10;58.20;;;;;;4957131;28;20635;-77
2023/12/31 12:07:09;;;;;;;1.87;1.77;;;18.10;58.30;;;;;;4952539;29;20475;-77
2023/12/31 12:09:37;;;;;;;1.77;1.67;;;18.20;58.50;;;;;;4953685;28;20479;-77
2023/12/31 12:12:06;;;;;;;3.13;2.10;;;18.20;58.30;;;;;;4956704;28;20475;-74
2023/12/31 12:14:34;;;;;;;2.27;1.73;;;18.20;58.50;;;;;;4964780;28;20443;-76
2023/12/31 12:17:04;;;;;;;2.27;2.07;;;18.30;58.30;;;;;;4952288;29;20451;-77
2023/12/31 12:19:33;;;;;;;2.40;2.20;;;18.30;58.40;;;;;;4956846;28;20466;-78
2023/12/31 12:22:01;;;;;;;2.10;2.00;;;18.40;58.40;;;;;;4958138;28;20445;-78
2023/12/31 12:24:29;;;;;;;1.60;1.60;;;18.50;58.10;;;;;;4955235;29;20430;-79
2023/12/31 12:27:00;;;;;;;2.00;1.90;;;18.50;57.90;;;;;;4958284;29;20446;-77
2023/12/31 12:29:32;;;;;;;1.80;1.70;;;18.60;57.90;;;;;;4957625;28;20481;-79
2023/12/31 12:32:02;;;;;;;1.90;1.80;;;18.60;57.80;;;;;;4956692;29;20521;-78
2023/12/31 12:34:32;;;;;;;1.87;1.77;;;18.60;57.60;;;;;;4949869;29;20487;-80
2023/12/31 12:37:00;;;;;;;2.17;2.07;;;18.60;57.80;;;;;;4955456;28;20978;-77
2023/12/31 12:39:28;;;;;;;2.60;2.40;;;17.90;54.20;;;;;;4955285;29;20449;-78
2023/12/31 12:41:56;;;;;;;2.93;2.73;;;15.40;57.10;;;;;;4956186;28;20434;-76
2023/12/31 12:44:24;;;;;;;6.80;2.90;;;14.30;60.20;;;;;;4955943;28;20443;-76
2023/12/31 12:46:52;;;;;;;3.80;2.60;;;13.40;63.50;;;;;;4956227;29;20453;-76
2023/12/31 12:49:20;;;;;;;2.83;2.63;;;13.10;64.80;;;;;;4948010;28;20467;-76
2023/12/31 12:51:50;;;;;;;2.70;2.50;;;12.80;66.70;;;;;;4956874;28;20470;-78
2023/12/31 12:54:18;;;;;;;2.73;2.53;;;14.00;69.00;;;;;;4956460;29;20475;-75
2023/12/31 12:56:46;;;;;;;5.07;2.83;;;15.20;65.70;;;;;;4955915;29;20440;-77